createdAt,value
2017-04-22T00:04:24.405Z,99.99
2017-04-22T00:09:20.394Z,99.99
2017-04-22T00:19:15.496Z,99.99
2017-04-22T00:24:11.724Z,99.99
2017-04-22T00:29:07.107Z,99.99
2017-04-22T00:34:02.980Z,99.99
2017-04-22T00:44:06.555Z,99.99
2017-04-22T00:49:04.512Z,99.99
2017-04-22T00:53:59.115Z,99.99
2017-04-22T00:58:55.077Z,99.99
2017-04-22T01:03:50.768Z,99.99
2017-04-22T01:08:46.145Z,98.03
2017-04-22T01:13:42.207Z,97.74
2017-04-22T01:18:40.403Z,99.36
2017-04-22T01:23:36.006Z,99.99
2017-04-22T01:28:32.149Z,99.93
2017-04-22T01:33:27.427Z,98.97
2017-04-22T01:38:26.950Z,99.55
2017-04-22T01:43:23.997Z,99.55
2017-04-22T01:53:27.359Z,99.64
2017-04-22T02:03:21.307Z,99.93
2017-04-22T02:08:17.657Z,99.99
2017-04-22T02:13:13.557Z,99.84
2017-04-22T02:18:08.827Z,99.64
2017-04-22T02:23:04.990Z,99.55
2017-04-22T02:28:00.751Z,99.84
2017-04-22T02:32:56.186Z,99.99
2017-04-22T02:37:52.173Z,99.84
2017-04-22T02:42:48.530Z,97.83
2017-04-22T02:52:49.514Z,97.41
2017-04-22T02:57:45.130Z,98.93
2017-04-22T03:02:42.251Z,98.12
2017-04-22T03:07:38.037Z,99.40
2017-04-22T03:12:33.583Z,99.97
2017-04-22T03:17:30.124Z,99.88
2017-04-22T03:22:26.294Z,99.99
2017-04-22T03:42:25.817Z,99.99
2017-04-22T03:47:21.591Z,99.99
2017-04-22T03:52:17.331Z,99.99
2017-04-22T03:57:13.131Z,99.99
2017-04-22T04:02:10.043Z,99.99
2017-04-22T04:07:06.398Z,99.84
2017-04-22T04:12:03.712Z,99.99
2017-04-22T04:16:59.657Z,99.99
2017-04-22T04:21:55.517Z,99.99
2017-04-22T04:26:51.097Z,99.50
2017-04-22T04:31:46.370Z,99.99
2017-04-22T04:36:42.388Z,99.78
2017-04-22T04:41:39.704Z,99.55
2017-04-22T04:46:35.308Z,98.60
2017-04-22T04:51:34.830Z,98.36
2017-04-22T04:56:31.344Z,97.27
2017-04-22T05:01:27.869Z,96.98
2017-04-22T05:06:23.242Z,97.12
2017-04-22T05:11:18.885Z,97.12
2017-04-22T05:16:14.830Z,97.12
2017-04-22T05:21:10.561Z,95.98
2017-04-22T05:26:06.502Z,96.26
2017-04-22T05:31:05.760Z,95.56
2017-04-22T05:36:01.024Z,94.18
2017-04-22T05:40:56.828Z,93.08
2017-04-22T05:45:52.762Z,92.80
2017-04-22T05:50:52.955Z,91.66
2017-04-22T05:55:48.519Z,90.80
2017-04-22T06:00:44.173Z,90.23
2017-04-22T06:05:40.678Z,88.90
2017-04-22T06:10:36.238Z,89.56
2017-04-22T06:15:31.871Z,89.37
2017-04-22T06:20:27.601Z,87.57
2017-04-22T06:25:24.066Z,87.38
2017-04-22T06:30:19.320Z,88.13
2017-04-22T06:35:15.752Z,88.42
2017-04-22T06:40:11.795Z,86.14
2017-04-22T06:45:08.018Z,85.10
2017-04-22T06:50:05.185Z,83.95
2017-04-22T06:55:01.085Z,84.00
2017-04-22T06:59:58.262Z,83.33
2017-04-22T07:04:54.818Z,82.09
2017-04-22T07:09:50.597Z,82.67
2017-04-22T07:14:46.823Z,80.66
2017-04-22T07:19:43.023Z,80.86
2017-04-22T07:24:38.799Z,79.52
2017-04-22T07:29:34.921Z,78.57
2017-04-22T07:34:33.361Z,78.86
2017-04-22T07:39:28.646Z,78.00
2017-04-22T07:44:24.421Z,77.66
2017-04-22T07:49:20.296Z,77.19
2017-04-22T07:54:15.837Z,78.57
2017-04-22T07:59:12.091Z,79.14
2017-04-22T08:04:09.121Z,77.19
2017-04-22T08:09:04.959Z,71.22
2017-04-22T08:14:02.708Z,67.07
2017-04-22T08:18:59.974Z,63.42
2017-04-22T08:23:57.211Z,62.37
2017-04-22T08:28:54.359Z,58.55
2017-04-22T08:33:49.797Z,59.60
2017-04-22T08:38:46.156Z,58.81
2017-04-22T08:43:40.233Z,58.40
2017-04-22T08:48:35.048Z,60.69
2017-04-22T08:53:30.090Z,61.35
2017-04-22T08:58:25.598Z,62.49
2017-04-22T09:03:21.267Z,59.67
2017-04-22T09:08:17.438Z,57.76
2017-04-22T09:13:12.751Z,60.02
2017-04-22T09:18:08.309Z,62.02
2017-04-22T09:23:04.246Z,63.26
2017-04-22T09:28:00.553Z,61.57
2017-04-22T09:32:56.798Z,59.48
2017-04-22T09:37:53.256Z,59.48
2017-04-22T09:42:48.475Z,60.78
2017-04-22T09:47:44.943Z,57.67
2017-04-22T09:52:40.867Z,58.24
2017-04-22T09:57:37.015Z,60.40
2017-04-22T10:02:32.134Z,60.30
2017-04-22T10:07:27.677Z,61.07
2017-04-22T10:12:24.220Z,60.78
2017-04-22T10:17:20.511Z,61.83
2017-04-22T10:22:15.863Z,62.68
2017-04-22T10:27:11.511Z,66.08
2017-04-22T10:32:08.733Z,61.54
2017-04-22T10:37:07.598Z,55.60
2017-04-22T10:42:02.910Z,57.38
2017-04-22T10:46:58.886Z,56.62
2017-04-22T10:51:55.811Z,56.65
2017-04-22T10:56:52.997Z,58.81
2017-04-22T11:01:47.515Z,60.40
2017-04-22T11:06:45.710Z,59.51
2017-04-22T11:11:40.265Z,57.95
2017-04-22T11:16:34.794Z,60.97
2017-04-22T11:21:29.862Z,62.30
2017-04-22T11:26:24.978Z,64.37
2017-04-22T11:31:20.001Z,66.94
2017-04-22T11:36:16.835Z,68.75
2017-04-22T11:41:17.447Z,65.39
2017-04-22T11:46:15.849Z,57.06
2017-04-22T11:51:13.672Z,50.31
2017-04-22T11:56:04.677Z,53.02
2017-04-22T12:00:58.961Z,55.12
2017-04-22T12:06:00.645Z,50.49
2017-04-22T12:10:57.769Z,46.77
2017-04-22T12:15:53.438Z,44.41
2017-04-22T12:20:48.942Z,44.37
2017-04-22T12:25:42.617Z,47.97
2017-04-22T12:35:39.622Z,48.85
2017-04-22T12:40:34.454Z,48.28
2017-04-22T12:45:30.125Z,46.75
2017-04-22T12:50:26.741Z,47.78
2017-04-22T12:55:21.806Z,48.73
2017-04-22T13:00:17.914Z,49.02
2017-04-22T13:05:14.481Z,47.11
2017-04-22T13:10:09.232Z,47.87
2017-04-22T13:15:05.894Z,47.87
2017-04-22T13:20:00.766Z,48.83
2017-04-22T13:24:56.065Z,49.66
2017-04-22T13:29:51.177Z,49.66
2017-04-22T13:34:47.119Z,50.32
2017-04-22T13:39:43.331Z,50.23
2017-04-22T13:44:39.040Z,50.61
2017-04-22T13:49:35.056Z,51.54
2017-04-22T13:54:30.883Z,52.33
2017-04-22T13:59:26.384Z,53.00
2017-04-22T14:04:22.785Z,52.80
2017-04-22T14:09:18.941Z,50.99
2017-04-22T14:14:14.710Z,49.37
2017-04-22T14:19:10.519Z,49.37
2017-04-22T14:24:06.980Z,50.13
2017-04-22T14:29:02.383Z,50.01
2017-04-22T14:33:57.968Z,50.78
2017-04-22T14:38:53.516Z,51.64
2017-04-22T14:43:50.434Z,51.09
2017-04-22T14:48:45.872Z,51.47
2017-04-22T14:53:41.547Z,52.52
2017-04-22T14:58:37.140Z,52.52
2017-04-22T15:03:32.693Z,53.28
2017-04-22T15:08:28.469Z,54.59
2017-04-22T15:13:24.284Z,55.16
2017-04-22T15:18:19.185Z,55.35
2017-04-22T15:23:15.274Z,55.04
2017-04-22T15:28:11.885Z,55.90
2017-04-22T15:33:07.580Z,57.26
2017-04-22T15:38:04.939Z,56.11
2017-04-22T15:43:00.543Z,56.49
2017-04-22T15:47:56.408Z,56.65
2017-04-22T15:52:52.003Z,56.40
2017-04-22T15:57:49.561Z,57.23
2017-04-22T16:02:44.843Z,57.99
2017-04-22T16:07:41.108Z,57.64
2017-04-22T16:12:37.497Z,56.30
2017-04-22T16:17:34.499Z,56.87
2017-04-22T16:22:29.840Z,56.68
2017-04-22T16:27:25.791Z,57.32
2017-04-22T16:32:22.088Z,57.73
2017-04-22T16:37:17.606Z,56.78
2017-04-22T16:42:14.730Z,61.73
2017-04-22T16:47:10.258Z,56.87
2017-04-22T16:52:05.954Z,56.94
2017-04-22T16:57:02.237Z,56.27
2017-04-22T17:01:58.041Z,56.56
2017-04-22T17:06:54.045Z,57.80
2017-04-22T17:11:50.593Z,57.89
2017-04-22T17:16:46.340Z,57.60
2017-04-22T17:21:42.275Z,58.81
2017-04-22T17:26:37.970Z,59.20
2017-04-22T17:31:33.603Z,59.20
2017-04-22T17:36:29.344Z,60.15
2017-04-22T17:41:24.970Z,59.67
2017-04-22T17:46:20.774Z,61.67
2017-04-22T17:51:17.124Z,61.96
2017-04-22T17:56:12.770Z,62.15
2017-04-22T18:01:08.253Z,62.12
2017-04-22T18:06:04.369Z,62.40
2017-04-22T18:11:00.682Z,63.26
2017-04-22T18:15:56.388Z,63.29
2017-04-22T18:20:51.937Z,64.50
2017-04-22T18:25:49.902Z,65.73
2017-04-22T18:30:45.233Z,66.87
2017-04-22T18:35:40.908Z,66.30
2017-04-22T18:40:36.995Z,66.87
2017-04-22T18:45:32.555Z,67.63
2017-04-22T18:50:29.014Z,67.63
2017-04-22T18:55:24.988Z,69.02
2017-04-22T19:00:20.808Z,69.12
2017-04-22T19:05:17.358Z,69.79
2017-04-22T19:10:14.968Z,69.69
2017-04-22T19:15:10.260Z,69.79
2017-04-22T19:20:05.813Z,71.31
2017-04-22T19:25:02.783Z,71.97
2017-04-22T19:29:59.766Z,73.11
2017-04-22T19:34:55.042Z,75.11
2017-04-22T19:39:50.414Z,75.21
2017-04-22T19:44:46.469Z,74.92
2017-04-22T19:49:42.153Z,76.54
2017-04-22T19:54:40.855Z,75.55
2017-04-22T19:59:35.721Z,75.84
2017-04-22T20:04:32.524Z,76.63
2017-04-22T20:09:28.832Z,79.35
2017-04-22T20:14:25.697Z,82.77
2017-04-22T20:19:21.543Z,82.39
2017-04-22T20:24:17.514Z,82.87
2017-04-22T20:29:16.694Z,83.06
2017-04-22T20:34:14.386Z,82.92
2017-04-22T20:39:10.057Z,82.92
2017-04-22T20:44:06.281Z,83.39
2017-04-22T20:49:04.024Z,83.68
2017-04-22T20:53:59.789Z,84.16
2017-04-22T20:58:55.565Z,84.34
2017-04-22T21:03:54.236Z,85.30
2017-04-22T21:08:49.350Z,85.39
2017-04-22T21:13:44.882Z,85.49
2017-04-22T21:18:41.088Z,85.01
2017-04-22T21:23:37.187Z,85.49
2017-04-22T21:28:32.600Z,85.49
2017-04-22T21:33:34.599Z,85.77
2017-04-22T21:38:28.990Z,86.01
2017-04-22T21:43:24.835Z,85.01
2017-04-22T21:48:20.435Z,85.11
2017-04-22T21:53:16.859Z,84.91
2017-04-22T21:58:12.829Z,84.40
2017-04-22T22:03:08.349Z,84.97
2017-04-22T22:08:04.137Z,84.44
2017-04-22T22:13:01.445Z,84.30
2017-04-22T22:18:00.661Z,84.40
2017-04-22T22:22:56.501Z,84.21
2017-04-22T22:27:52.406Z,84.87
2017-04-22T22:32:48.941Z,84.78
2017-04-22T22:37:48.072Z,85.91
2017-04-22T22:42:42.878Z,85.72
2017-04-22T22:47:38.545Z,85.63
2017-04-22T22:52:34.565Z,85.72
2017-04-22T22:57:30.117Z,86.49
2017-04-22T23:02:25.905Z,86.68
2017-04-22T23:07:22.105Z,86.16
2017-04-22T23:12:18.602Z,86.87
2017-04-22T23:17:14.462Z,87.34
2017-04-22T23:22:11.296Z,86.44
2017-04-22T23:27:07.741Z,86.63
2017-04-22T23:32:03.300Z,87.96
2017-04-22T23:37:02.305Z,87.87
2017-04-22T23:41:57.010Z,88.15
2017-04-22T23:46:52.581Z,88.62
2017-04-22T23:51:48.856Z,88.72
2017-04-22T23:56:44.368Z,88.81
